createdAt,value
2023-01-30T00:27:27.261Z,14.90
2023-01-30T00:30:02.786Z,16.10
2023-01-30T00:32:31.399Z,11.80
2023-01-30T00:34:58.762Z,10.50
2023-01-30T00:37:25.500Z,10.40
2023-01-30T00:39:52.202Z,10.10
2023-01-30T00:42:37.718Z,10.90
2023-01-30T00:45:23.641Z,9.40
2023-01-30T00:47:51.526Z,11.30
2023-01-30T00:50:18.923Z,9.20
2023-01-30T00:52:48.263Z,9.00
2023-01-30T00:55:15.177Z,8.70
2023-01-30T00:57:42.019Z,10.90
2023-01-30T01:00:09.899Z,9.60
2023-01-30T01:02:37.799Z,11.10
2023-01-30T01:05:05.004Z,9.70
2023-01-30T01:07:32.062Z,17.00
2023-01-30T01:09:59.553Z,12.90
2023-01-30T01:12:26.374Z,12.00
2023-01-30T01:14:53.406Z,8.90
2023-01-30T01:17:20.621Z,12.40
2023-01-30T01:19:47.376Z,12.60
2023-01-30T01:22:14.385Z,13.50
2023-01-30T01:24:41.366Z,11.80
2023-01-30T01:27:09.201Z,13.40
2023-01-30T01:29:36.733Z,12.20
2023-01-30T01:32:03.625Z,16.10
2023-01-30T01:34:30.420Z,12.60
2023-01-30T01:36:57.375Z,11.70
2023-01-30T01:39:24.566Z,12.10
2023-01-30T01:41:51.421Z,10.80
2023-01-30T01:44:18.625Z,10.50
2023-01-30T01:46:54.992Z,8.40
2023-01-30T01:49:26.402Z,10.40
2023-01-30T01:51:59.598Z,9.10
2023-01-30T01:54:43.155Z,10.20
2023-01-30T01:57:20.284Z,10.50
2023-01-30T01:59:52.538Z,9.60
2023-01-30T02:02:19.279Z,8.30
2023-01-30T04:10:40.569Z,15.50
2023-01-30T04:13:07.828Z,16.90
2023-01-30T04:15:34.635Z,17.00
2023-01-30T04:18:20.237Z,17.10
2023-01-30T04:21:05.665Z,14.80
2023-01-30T04:23:36.007Z,14.40
2023-01-30T04:26:04.019Z,14.00
2023-01-30T04:28:37.872Z,13.60
2023-01-30T04:31:04.839Z,17.00
2023-01-30T04:33:39.769Z,15.00
2023-01-30T04:36:07.918Z,15.00
2023-01-30T04:38:35.416Z,16.30
2023-01-30T04:41:04.024Z,15.80
2023-01-30T04:43:32.979Z,26.60
2023-01-30T04:46:18.905Z,20.30
2023-01-30T04:48:45.697Z,15.70
2023-01-30T04:51:12.766Z,16.60
2023-01-30T04:53:39.492Z,16.50
2023-01-30T04:56:06.780Z,19.70
2023-01-30T04:58:33.533Z,16.70
2023-01-30T05:01:21.045Z,17.50
2023-01-30T05:03:52.349Z,22.60
2023-01-30T05:06:19.783Z,18.10
2023-01-30T05:08:50.862Z,24.90
2023-01-30T05:11:18.390Z,14.80
2023-01-30T05:13:45.319Z,18.30
2023-01-30T05:16:14.247Z,18.70
2023-01-30T05:18:41.414Z,20.30
2023-01-30T05:21:12.579Z,24.50
2023-01-30T05:23:39.443Z,19.80
2023-01-30T05:26:06.978Z,19.10
2023-01-30T05:28:34.441Z,19.60
2023-01-30T05:31:09.881Z,23.40
2023-01-30T05:33:38.251Z,18.40
2023-01-30T05:36:05.574Z,21.90
2023-01-30T05:38:32.598Z,22.50
2023-01-30T05:41:03.515Z,22.90
2023-01-30T05:43:30.592Z,26.30
2023-01-30T05:46:02.866Z,28.20
2023-01-30T05:48:30.046Z,24.00
2023-01-30T05:50:58.010Z,20.90
2023-01-30T05:53:27.410Z,21.20
2023-01-30T05:55:58.726Z,16.00
2023-01-30T05:58:26.443Z,18.80
2023-01-30T06:00:54.211Z,18.90
2023-01-30T10:45:17.142Z,20.10
2023-01-30T10:48:11.050Z,20.90
2023-01-30T10:50:57.995Z,22.40
2023-01-30T10:53:47.777Z,20.90
2023-01-30T10:56:27.440Z,23.60
2023-01-30T10:59:02.794Z,19.00
2023-01-30T11:01:32.319Z,19.00
2023-01-30T11:04:03.313Z,18.80
2023-01-30T11:08:57.945Z,21.80
2023-01-30T11:11:30.079Z,19.80
2023-01-30T11:14:07.913Z,18.20
2023-01-30T11:16:54.969Z,17.70
2023-01-30T11:19:23.230Z,24.40
2023-01-30T11:21:54.169Z,22.40
2023-01-30T11:24:29.199Z,20.70
2023-01-30T11:27:15.202Z,27.70
2023-01-30T11:29:41.999Z,26.30
2023-01-30T11:32:19.328Z,28.80
2023-01-30T11:34:46.237Z,23.20
2023-01-30T11:37:27.636Z,22.40
2023-01-30T11:39:54.467Z,23.40
2023-01-30T11:42:24.758Z,24.60
2023-01-30T11:45:06.470Z,20.50
2023-01-30T11:47:57.933Z,20.90
2023-01-30T11:50:33.353Z,22.00
2023-01-30T11:53:03.356Z,19.70
2023-01-30T11:55:30.277Z,20.60
2023-01-30T11:57:58.181Z,18.20
2023-01-30T12:00:38.320Z,21.30
2023-01-30T12:03:06.229Z,19.00
2023-01-30T12:05:34.730Z,22.20
2023-01-30T12:08:14.073Z,19.90
2023-01-30T12:10:42.044Z,25.40
2023-01-30T12:13:35.038Z,21.70
2023-01-30T12:16:25.965Z,16.70
2023-01-30T12:19:22.908Z,17.50
2023-01-30T12:21:55.711Z,17.00
2023-01-30T12:24:42.898Z,17.80
2023-01-30T12:27:20.629Z,16.40
2023-01-30T12:29:53.173Z,19.10
2023-01-30T12:32:21.793Z,25.10
2023-01-30T12:34:50.273Z,26.90
2023-01-30T12:37:44.610Z,19.90
2023-01-30T12:40:37.485Z,28.50
2023-01-30T12:43:20.619Z,25.20
2023-01-30T12:46:21.970Z,22.00
2023-01-30T12:49:10.919Z,22.60
2023-01-30T12:52:16.252Z,24.30
2023-01-30T12:54:52.342Z,21.50
2023-01-30T12:58:19.825Z,18.20
2023-01-30T13:01:27.415Z,20.30
2023-01-30T13:04:00.272Z,18.60
2023-01-30T13:06:39.273Z,21.40
2023-01-30T13:09:33.905Z,25.40
2023-01-30T13:12:12.793Z,27.30
2023-01-30T13:27:58.424Z,22.40
2023-01-30T13:30:27.188Z,23.00
2023-01-30T13:32:58.256Z,21.20
2023-01-30T13:35:33.066Z,17.50
2023-01-30T13:37:59.884Z,20.20
2023-01-30T13:40:44.924Z,21.30
2023-01-30T13:43:25.103Z,21.20
2023-01-30T13:45:53.222Z,24.60
